Time;durP1;ratioP1;P1;durP2;ratioP2;P2;SDS_P1;SDS_P2;PMS_P1;PMS_P2;Temp;Humidity;BMP_temperature;BMP_pressure;BME280_temperature;BME280_humidity;BME280_pressure;Samples;Min_cycle;Max_cycle;Signal;HPM_P1;HPM_P2
2021/10/02 00:45:42;;;;;;;;;;;;;;;22.01;31.79;98732.75;4887901;29;1903;-79
2021/10/02 00:48:08;;;;;;;;;;;;;;;22.03;31.48;98716.16;4902498;29;790;-79
2021/10/02 00:50:34;;;;;;;;;;;;;;;22.01;31.46;98723.47;4902424;29;880;-79
2021/10/02 00:52:59;;;;;;;;;;;;;;;21.74;31.79;98715.81;4887500;29;932;-79
2021/10/02 00:55:25;;;;;;;;;;;;;;;21.64;32.31;98722.44;4887648;29;948;-79
2021/10/02 00:57:50;;;;;;;;;;;;;;;21.79;31.99;98714.53;4902350;29;968;-79
2021/10/02 01:00:16;;;;;;;;;;;;;;;21.93;31.46;98719.16;4887984;29;592;-79
2021/10/02 01:02:47;;;;;;;;;;;;;;;21.82;31.79;98717.31;4887732;29;597;-79
2021/10/02 01:05:12;;;;;;;;;;;;;;;21.59;32.30;98715.22;4887561;29;1895;-79
2021/10/02 01:07:53;;;;;;;;;;;;;;;21.65;32.16;98715.53;4887338;29;944;-79
2021/10/02 01:10:39;;;;;;;;;;;;;;;21.67;31.92;98718.75;4901857;29;916;-79
2021/10/02 01:13:24;;;;;;;;;;;;;;;22.11;32.65;98711.19;4888010;29;718;-79
2021/10/02 01:15:50;;;;;;;;;;;;;;;22.32;32.34;98716.47;4901840;29;982;-80
2021/10/02 01:18:42;;;;;;;;;;;;;;;22.41;31.96;98717.94;4887476;29;636;-79
2021/10/02 01:21:25;;;;;;;;;;;;;;;22.12;31.95;98718.44;4886273;29;1000;-79
2021/10/02 01:23:57;;;;;;;;;;;;;;;21.93;31.94;98719.16;4887257;29;893;-79
2021/10/02 01:26:28;;;;;;;;;;;;;;;21.85;31.78;98713.59;4886850;29;1910;-79
2021/10/02 01:28:56;;;;;;;;;;;;;;;21.78;31.96;98722.22;4901754;29;845;-79
2021/10/02 01:31:28;;;;;;;;;;;;;;;21.69;32.01;98713.47;4901712;29;628;-79
2021/10/02 01:36:49;;;;;;;;;;;;;;;21.90;31.88;98720.00;4899781;29;770;-79
2021/10/02 01:47:32;;;;;;;;;;;;;;;22.06;32.41;98703.13;4899522;29;640;-79
2021/10/02 01:49:58;;;;;;;;;;;;;;;22.33;31.90;98718.09;4901325;29;840;-79
2021/10/02 01:52:42;;;;;;;;;;;;;;;22.34;31.40;98719.69;4901410;29;946;-79
2021/10/02 01:55:08;;;;;;;;;;;;;;;21.92;31.85;98718.38;4901337;29;958;-79
2021/10/02 01:57:38;;;;;;;;;;;;;;;21.97;31.41;98714.25;4900873;29;913;-79
2021/10/02 02:00:04;;;;;;;;;;;;;;;22.05;31.47;98712.88;4901720;29;665;-79
2021/10/02 02:02:30;;;;;;;;;;;;;;;22.01;31.67;98709.28;4886696;29;631;-79
2021/10/02 02:04:55;;;;;;;;;;;;;;;21.82;32.11;98708.81;4901029;29;1894;-79
2021/10/02 02:07:21;;;;;;;;;;;;;;;21.69;32.33;98716.28;4901480;29;708;-79
2021/10/02 02:09:47;;;;;;;;;;;;;;;21.84;31.95;98709.16;4900702;29;1058;-79
2021/10/02 02:12:13;;;;;;;;;;;;;;;21.75;32.08;98711.72;4900740;29;876;-79
2021/10/02 02:14:39;;;;;;;;;;;;;;;21.85;31.67;98710.75;4901182;29;983;-79
2021/10/02 02:17:05;;;;;;;;;;;;;;;21.71;31.96;98705.34;4901004;29;852;-79
2021/10/02 02:19:30;;;;;;;;;;;;;;;21.72;32.12;98712.63;4886374;29;629;-79
2021/10/02 02:21:56;;;;;;;;;;;;;;;22.12;31.96;98707.09;4901337;29;636;-79
2021/10/02 02:24:21;;;;;;;;;;;;;;;22.34;32.14;98705.50;4900836;29;1896;-79
2021/10/02 02:26:47;;;;;;;;;;;;;;;22.50;31.61;98704.00;4885846;29;848;-79
2021/10/02 02:29:12;;;;;;;;;;;;;;;22.23;31.66;98702.06;4900569;29;977;-79
2021/10/02 02:31:37;;;;;;;;;;;;;;;21.97;31.60;98700.88;4900828;29;784;-79
2021/10/02 02:34:03;;;;;;;;;;;;;;;21.81;31.91;98710.03;4900961;29;1252;-79
2021/10/02 02:36:28;;;;;;;;;;;;;;;21.72;31.99;98712.63;4900685;29;892;-79
2021/10/02 02:38:54;;;;;;;;;;;;;;;21.82;32.11;98711.63;4900771;29;933;-78
2021/10/02 02:41:19;;;;;;;;;;;;;;;21.78;31.93;98710.09;4885884;29;880;-79
2021/10/02 02:43:45;;;;;;;;;;;;;;;21.87;31.72;98713.19;4885931;29;885;-79
2021/10/02 02:46:17;;;;;;;;;;;;;;;21.83;31.95;98712.44;4900922;29;1994;-79
2021/10/02 02:48:49;;;;;;;;;;;;;;;21.87;31.59;98701.06;4900572;29;691;-79
2021/10/02 02:51:16;;;;;;;;;;;;;;;21.79;31.81;98706.81;4886076;29;711;-79
2021/10/02 02:53:58;;;;;;;;;;;;;;;21.82;31.64;98705.97;4903282;29;996;-79
2021/10/02 02:56:32;;;;;;;;;;;;;;;21.63;32.14;98698.19;4906346;29;907;-79
2021/10/02 02:58:59;;;;;;;;;;;;;;;21.74;31.59;98707.31;4907370;29;640;-79
2021/10/02 03:01:25;;;;;;;;;;;;;;;21.96;32.30;98704.13;4892096;29;680;-79
2021/10/02 03:03:51;;;;;;;;;;;;;;;22.35;32.11;98709.94;4892069;29;747;-79
2021/10/02 03:06:18;;;;;;;;;;;;;;;22.40;31.59;98700.13;4906680;29;1977;-79
2021/10/02 03:08:44;;;;;;;;;;;;;;;22.14;31.56;98713.16;4906961;29;981;-79
2021/10/02 03:11:09;;;;;;;;;;;;;;;21.93;31.79;98700.13;4906411;29;862;-80
2021/10/02 03:13:35;;;;;;;;;;;;;;;21.90;31.50;98700.19;4891893;29;1067;-79
2021/10/02 03:16:01;;;;;;;;;;;;;;;21.72;32.04;98711.81;4906788;29;1149;-80
2021/10/02 03:18:27;;;;;;;;;;;;;;;21.76;31.61;98699.19;4892094;29;676;-79
2021/10/02 03:20:53;;;;;;;;;;;;;;;21.77;31.75;98706.47;4906625;29;873;-79
2021/10/02 03:23:19;;;;;;;;;;;;;;;21.98;31.33;98690.34;4906384;29;882;-79
2021/10/02 03:25:44;;;;;;;;;;;;;;;21.99;31.23;98704.06;4906137;29;1968;-79
2021/10/02 03:28:10;;;;;;;;;;;;;;;21.68;31.56;98699.72;4891949;29;984;-79
2021/10/02 03:30:35;;;;;;;;;;;;;;;21.85;31.66;98688.09;4892135;29;629;-79
2021/10/02 03:33:01;;;;;;;;;;;;;;;21.98;32.25;98696.00;4891981;29;735;-79
2021/10/02 03:35:26;;;;;;;;;;;;;;;22.28;32.08;98698.75;4906497;29;840;-79
2021/10/02 03:37:52;;;;;;;;;;;;;;;22.54;31.63;98699.06;4905938;29;1307;-79
2021/10/02 03:40:18;;;;;;;;;;;;;;;22.25;31.65;98693.91;4891689;29;921;-79
2021/10/02 03:42:43;;;;;;;;;;;;;;;21.96;31.91;98681.44;4891722;29;1037;-79
2021/10/02 03:45:09;;;;;;;;;;;;;;;21.97;31.54;98680.25;4891642;29;1894;-79
2021/10/02 03:47:34;;;;;;;;;;;;;;;21.76;31.73;98684.22;4891742;29;657;-79
2021/10/02 03:50:00;;;;;;;;;;;;;;;21.85;31.52;98688.09;4891782;29;835;-79
2021/10/02 03:52:25;;;;;;;;;;;;;;;22.10;32.42;98692.53;4891283;29;1047;-79
2021/10/02 03:54:50;;;;;;;;;;;;;;;22.36;31.79;98688.03;4891422;29;896;-79
2021/10/02 03:57:16;;;;;;;;;;;;;;;22.40;31.44;98697.28;4891574;29;941;-79
2021/10/02 03:59:41;;;;;;;;;;;;;;;22.17;31.22;98698.09;4883096;29;1420;-79
2021/10/02 04:02:07;;;;;;;;;;;;;;;21.89;31.43;98688.03;4873061;29;657;-79
2021/10/02 04:04:32;;;;;;;;;;;;;;;21.95;31.24;98696.84;4872386;29;1962;-79
2021/10/02 04:06:58;;;;;;;;;;;;;;;21.88;31.53;98702.66;4868956;29;1024;-80
2021/10/02 04:09:24;;;;;;;;;;;;;;;21.95;31.25;98696.84;4870002;29;960;-79
2021/10/02 04:11:50;;;;;;;;;;;;;;;21.82;31.89;98694.66;4870053;29;852;-79
2021/10/02 04:14:15;;;;;;;;;;;;;;;21.91;31.47;98701.78;4869616;29;1657;-79
2021/10/02 04:16:41;;;;;;;;;;;;;;;21.77;31.82;98703.63;4869921;29;677;-79
2021/10/02 04:19:06;;;;;;;;;;;;;;;21.79;31.75;98689.81;4869466;29;1606;-79
2021/10/02 04:21:32;;;;;;;;;;;;;;;21.85;31.39;98705.09;4869548;29;960;-79
2021/10/02 04:23:57;;;;;;;;;;;;;;;21.79;31.40;98701.16;4869544;29;831;-79
2021/10/02 04:26:23;;;;;;;;;;;;;;;21.74;31.32;98707.31;4868936;29;1907;-80
2021/10/02 04:28:49;;;;;;;;;;;;;;;21.77;31.65;98697.97;4869051;29;863;-79
2021/10/02 04:31:16;;;;;;;;;;;;;;;21.88;31.93;98702.66;4869766;29;620;-79
2021/10/02 04:33:44;;;;;;;;;;;;;;;22.23;31.97;98702.06;4868905;29;846;-79
2021/10/02 04:36:10;;;;;;;;;;;;;;;22.41;31.81;98700.94;4869227;29;882;-79
2021/10/02 04:38:35;;;;;;;;;;;;;;;22.52;31.42;98696.66;4869292;29;1011;-79
2021/10/02 04:41:01;;;;;;;;;;;;;;;22.02;31.75;98685.38;4869510;29;975;-80
2021/10/02 04:43:26;;;;;;;;;;;;;;;21.80;32.01;98707.63;4869547;29;691;-79
2021/10/02 04:45:52;;;;;;;;;;;;;;;21.99;31.53;98697.59;4868596;29;1903;-80
2021/10/02 04:48:17;;;;;;;;;;;;;;;21.89;31.60;98707.09;4869438;29;728;-79
2021/10/02 04:50:42;;;;;;;;;;;;;;;21.81;31.61;98712.88;4868325;29;1076;-79
2021/10/02 04:53:08;;;;;;;;;;;;;;;21.81;31.74;98710.03;4869154;29;907;-80
2021/10/02 04:55:33;;;;;;;;;;;;;;;21.90;31.88;98711.50;4869274;29;851;-79
2021/10/02 04:57:59;;;;;;;;;;;;;;;22.14;32.39;98713.16;4869200;29;613;-79
2021/10/02 05:00:24;;;;;;;;;;;;;;;22.36;31.99;98711.53;4868469;29;613;-80
2021/10/02 05:02:50;;;;;;;;;;;;;;;22.55;31.63;98717.69;4868603;29;651;-79
2021/10/02 05:05:15;;;;;;;;;;;;;;;22.18;31.61;98716.75;4868624;29;1970;-79
2021/10/02 05:07:41;;;;;;;;;;;;;;;21.93;31.15;98722.00;4868689;29;914;-79
2021/10/02 05:10:06;;;;;;;;;;;;;;;21.93;31.09;98707.84;4868975;29;947;-79
2021/10/02 05:12:32;;;;;;;;;;;;;;;21.95;31.00;98711.03;4869022;29;605;-79
2021/10/02 05:14:57;;;;;;;;;;;;;;;21.88;31.45;98716.81;4868829;29;1011;-79
2021/10/02 05:17:23;;;;;;;;;;;;;;;21.89;31.32;98710.72;4867684;29;772;-79
2021/10/02 05:19:49;;;;;;;;;;;;;;;21.77;31.71;98714.97;4883201;29;956;-79
2021/10/02 05:22:14;;;;;;;;;;;;;;;21.71;31.79;98715.84;4868440;29;918;-79
2021/10/02 05:24:40;;;;;;;;;;;;;;;21.92;31.56;98720.41;4869112;29;1978;-79
2021/10/02 05:27:06;;;;;;;;;;;;;;;21.90;31.50;98717.19;4868662;29;620;-80
2021/10/02 05:29:35;;;;;;;;;;;;;;;21.79;31.95;98718.16;4868661;29;700;-79
2021/10/02 05:32:01;;;;;;;;;;;;;;;21.76;32.07;98721.03;4867866;29;852;-79
2021/10/02 05:34:26;;;;;;;;;;;;;;;21.79;31.62;98718.16;4868214;29;1077;-79
2021/10/02 05:36:51;;;;;;;;;;;;;;;21.89;31.51;98726.91;4868636;29;897;-79
2021/10/02 05:39:17;;;;;;;;;;;;;;;21.87;31.58;98724.53;4867746;29;819;-79
2021/10/02 05:41:42;;;;;;;;;;;;;;;21.81;31.74;98727.03;4868334;29;705;-79
2021/10/02 05:44:08;;;;;;;;;;;;;;;21.77;32.03;98726.28;4868905;29;628;-79
2021/10/02 05:46:34;;;;;;;;;;;;;;;21.71;32.05;98732.84;4868411;29;1970;-79
2021/10/02 05:48:59;;;;;;;;;;;;;;;21.69;31.79;98724.78;4868156;29;956;-79
2021/10/02 05:51:24;;;;;;;;;;;;;;;21.76;31.91;98730.34;4867910;29;897;-79
2021/10/02 05:53:50;;;;;;;;;;;;;;;21.77;31.97;98731.97;4868235;29;987;-79
2021/10/02 05:56:15;;;;;;;;;;;;;;;22.13;32.84;98739.09;4868324;29;756;-79
2021/10/02 05:58:41;;;;;;;;;;;;;;;22.41;32.43;98729.28;4868391;29;692;-79
2021/10/02 06:01:06;;;;;;;;;;;;;;;22.46;31.97;98743.75;4868181;29;677;-80
2021/10/02 06:03:32;;;;;;;;;;;;;;;22.10;32.23;98723.72;4867678;29;996;-79
2021/10/02 06:06:00;;;;;;;;;;;;;;;21.87;32.62;98732.22;4867712;29;1974;-79
2021/10/02 06:08:26;;;;;;;;;;;;;;;21.80;32.49;98736.75;4868074;29;993;-80
2021/10/02 06:10:51;;;;;;;;;;;;;;;21.79;32.13;98729.47;4867628;29;1503;-79
2021/10/02 06:13:17;;;;;;;;;;;;;;;21.92;32.31;98734.56;4867908;29;685;-79
2021/10/02 06:15:42;;;;;;;;;;;;;;;21.89;32.17;98743.91;4868121;29;990;-79
2021/10/02 06:18:08;;;;;;;;;;;;;;;21.94;32.24;98732.09;4867647;29;927;-79
2021/10/02 06:20:33;;;;;;;;;;;;;;;21.88;32.26;98739.47;4867527;29;857;-79
2021/10/02 06:23:02;;;;;;;;;;;;;;;21.83;32.00;98741.56;4867780;29;925;-79
2021/10/02 06:25:28;;;;;;;;;;;;;;;21.78;32.12;98744.88;4867684;29;1903;-79
2021/10/02 06:27:53;;;;;;;;;;;;;;;21.78;32.10;98739.22;4867354;29;704;-79
2021/10/02 06:30:19;;;;;;;;;;;;;;;21.85;31.68;98739.09;4867706;29;653;-79
2021/10/02 06:32:45;;;;;;;;;;;;;;;21.81;31.97;98749.69;4867414;29;981;-80
2021/10/02 06:35:10;;;;;;;;;;;;;;;21.74;31.85;98744.13;4867479;29;916;-79
2021/10/02 06:37:36;;;;;;;;;;;;;;;22.00;32.74;98750.19;4866876;29;1078;-79
2021/10/02 06:40:03;;;;;;;;;;;;;;;22.32;32.64;98747.66;4867749;29;667;-79
2021/10/02 06:42:28;;;;;;;;;;;;;;;22.49;32.28;98759.13;4867620;29;629;-79
2021/10/02 06:44:53;;;;;;;;;;;;;;;22.36;31.98;98751.22;4867573;29;1903;-79
2021/10/02 06:47:19;;;;;;;;;;;;;;;22.07;32.20;98750.06;4867228;29;968;-80
2021/10/02 06:49:45;;;;;;;;;;;;;;;22.04;31.93;98756.63;4867237;29;823;-79
2021/10/02 06:52:10;;;;;;;;;;;;;;;21.82;32.37;98751.31;4866840;29;880;-79
2021/10/02 06:54:36;;;;;;;;;;;;;;;21.80;32.11;98759.41;4867441;29;742;-80
2021/10/02 06:57:01;;;;;;;;;;;;;;;21.89;32.29;98749.59;4867506;29;616;-79
2021/10/02 06:59:27;;;;;;;;;;;;;;;21.81;31.94;98744.03;4867430;29;661;-79
2021/10/02 07:01:53;;;;;;;;;;;;;;;21.92;31.87;98752.38;4867255;29;1081;-80
2021/10/02 07:04:18;;;;;;;;;;;;;;;21.88;31.78;98750.81;4866950;29;1029;-79
2021/10/02 07:06:44;;;;;;;;;;;;;;;21.89;31.61;98747.53;4867277;29;1907;-80
2021/10/02 07:09:09;;;;;;;;;;;;;;;21.73;32.04;98753.88;4867317;29;661;-80
2021/10/02 07:11:35;;;;;;;;;;;;;;;21.87;31.78;98737.88;4866615;29;1452;-79
2021/10/02 07:14:00;;;;;;;;;;;;;;;21.89;31.58;98739.03;4866942;29;1586;-79
2021/10/02 07:16:26;;;;;;;;;;;;;;;21.79;31.65;98749.31;4867033;29;1079;-80
2021/10/02 07:18:51;;;;;;;;;;;;;;;21.89;31.85;98749.59;4866888;29;846;-79
2021/10/02 07:21:17;;;;;;;;;;;;;;;22.08;32.72;98751.69;4867346;29;956;-79
2021/10/02 07:23:42;;;;;;;;;;;;;;;22.21;32.79;98747.03;4867279;29;628;-79
2021/10/02 07:26:08;;;;;;;;;;;;;;;22.49;32.61;98747.78;4867171;29;1907;-80
2021/10/02 07:28:33;;;;;;;;;;;;;;;22.14;32.47;98761.34;4867171;29;620;-79
2021/10/02 07:30:59;;;;;;;;;;;;;;;22.04;31.96;98759.47;4866875;29;1014;-81
2021/10/02 07:33:24;;;;;;;;;;;;;;;21.79;32.10;98757.81;4866840;29;859;-79
2021/10/02 07:35:50;;;;;;;;;;;;;;;21.83;32.03;98758.56;4867096;29;1001;-80
2021/10/02 07:38:15;;;;;;;;;;;;;;;21.79;31.95;98752.16;4867034;29;689;-80
2021/10/02 07:40:41;;;;;;;;;;;;;;;21.76;31.96;98752.19;4869211;29;1621;-79
2021/10/02 07:43:06;;;;;;;;;;;;;;;21.90;31.78;98751.97;4869804;29;1676;-80
2021/10/02 07:45:32;;;;;;;;;;;;;;;21.89;31.66;98749.59;4869536;29;1907;-80
2021/10/02 07:47:57;;;;;;;;;;;;;;;21.79;31.79;98746.47;4869401;29;944;-79
2021/10/02 07:50:23;;;;;;;;;;;;;;;21.77;31.91;98746.13;4869791;29;1028;-79
2021/10/02 07:52:54;;;;;;;;;;;;;;;21.60;32.19;98750.00;4870573;29;660;-80
2021/10/02 07:55:20;;;;;;;;;;;;;;;21.63;32.23;98754.81;4869734;29;975;-79
2021/10/02 07:57:45;;;;;;;;;;;;;;;21.75;32.18;98750.59;4869681;29;640;-79
2021/10/02 08:00:12;;;;;;;;;;;;;;;21.85;32.62;98750.44;4869209;29;867;-79
2021/10/02 08:02:40;;;;;;;;;;;;;;;22.25;32.67;98756.28;4869946;29;893;-79
2021/10/02 08:05:06;;;;;;;;;;;;;;;22.38;32.76;98747.16;4869418;29;1911;-79
2021/10/02 08:07:31;;;;;;;;;;;;;;;22.49;32.62;98748.59;4869599;29;668;-79
2021/10/02 08:09:57;;;;;;;;;;;;;;;22.12;32.65;98758.13;4870086;29;646;-80
2021/10/02 08:12:22;;;;;;;;;;;;;;;22.07;32.53;98755.75;4870131;29;1523;-79
2021/10/02 08:14:48;;;;;;;;;;;;;;;22.03;32.20;98760.69;4868835;29;1125;-79
2021/10/02 08:17:13;;;;;;;;;;;;;;;21.96;31.94;98755.91;4869649;29;854;-80
2021/10/02 08:19:39;;;;;;;;;;;;;;;21.96;32.19;98750.25;4869954;29;953;-80
2021/10/02 08:22:05;;;;;;;;;;;;;;;21.86;32.42;98756.88;4869792;29;1618;-79
2021/10/02 08:24:31;;;;;;;;;;;;;;;21.84;31.92;98763.00;4868991;29;1984;-79
2021/10/02 08:26:57;;;;;;;;;;;;;;;21.81;32.17;98761.03;4869361;29;656;-79
2021/10/02 08:29:22;;;;;;;;;;;;;;;21.91;32.01;98759.25;4868762;29;962;-79
2021/10/02 08:31:48;;;;;;;;;;;;;;;21.74;31.93;98766.78;4868618;29;918;-80
2021/10/02 08:34:13;;;;;;;;;;;;;;;21.79;32.17;98771.97;4868697;29;1567;-79
2021/10/02 08:36:39;;;;;;;;;;;;;;;21.69;31.90;98772.13;4869688;29;604;-80
2021/10/02 08:39:04;;;;;;;;;;;;;;;21.70;31.95;98771.69;4869730;29;715;-80
2021/10/02 08:41:30;;;;;;;;;;;;;;;21.81;31.66;98772.38;4868921;29;660;-79
2021/10/02 08:43:55;;;;;;;;;;;;;;;22.10;32.45;98772.72;4852494;29;1548;-79
2021/10/02 08:46:20;;;;;;;;;;;;;;;22.33;32.59;98771.94;4867989;29;1970;-79
2021/10/02 08:49:01;;;;;;;;;;;;;;;22.46;32.65;98772.13;4868851;29;860;-80
2021/10/02 08:51:26;;;;;;;;;;;;;;;22.12;32.51;98768.66;4868340;29;1530;-79
2021/10/02 08:53:52;;;;;;;;;;;;;;;22.07;32.26;98767.91;4869039;29;912;-80
2021/10/02 08:56:18;;;;;;;;;;;;;;;21.87;32.25;98763.38;4869322;29;665;-80
2021/10/02 08:58:43;;;;;;;;;;;;;;;21.72;32.54;98763.59;4868206;29;891;-79
2021/10/02 09:01:09;;;;;;;;;;;;;;;21.71;32.74;98762.00;4868219;29;1510;-79
2021/10/02 09:03:34;;;;;;;;;;;;;;;21.80;32.21;98759.41;4869191;29;942;-79
2021/10/02 09:06:00;;;;;;;;;;;;;;;21.85;32.03;98756.09;4868410;29;1883;-79
2021/10/02 09:08:25;;;;;;;;;;;;;;;21.93;32.21;98759.63;4868396;29;793;-79
2021/10/02 09:10:50;;;;;;;;;;;;;;;21.83;32.04;98752.91;4868358;29;890;-80
2021/10/02 09:13:16;;;;;;;;;;;;;;;21.89;32.00;98750.38;4868543;29;1502;-79
2021/10/02 09:15:41;;;;;;;;;;;;;;;21.75;32.17;98750.59;4868489;29;1059;-79
2021/10/02 09:18:07;;;;;;;;;;;;;;;21.86;32.03;98745.56;4868883;29;1102;-79
2021/10/02 09:20:32;;;;;;;;;;;;;;;21.90;31.60;98748.34;4868880;29;676;-79
2021/10/02 09:23:02;;;;;;;;;;;;;;;21.94;31.81;98740.59;4868714;29;1558;-79
2021/10/02 09:25:29;;;;;;;;;;;;;;;21.89;31.94;98738.25;4868714;29;1911;-79
2021/10/02 09:28:21;;;;;;;;;;;;;;;21.93;31.71;98744.66;4867717;29;829;-80
2021/10/02 09:30:47;;;;;;;;;;;;;;;21.81;31.87;98746.88;4866552;29;980;-79
2021/10/02 09:33:22;;;;;;;;;;;;;;;21.96;31.54;98743.78;4868017;29;1566;-79
2021/10/02 09:35:48;;;;;;;;;;;;;;;21.91;31.58;98752.78;4868284;29;765;-80
2021/10/02 09:38:14;;;;;;;;;;;;;;;21.92;31.73;98743.06;4867986;29;646;-80
2021/10/02 09:40:40;;;;;;;;;;;;;;;21.77;31.57;98746.13;4867717;29;597;-79
2021/10/02 09:43:05;;;;;;;;;;;;;;;22.01;32.36;98746.13;4867897;29;1483;-80
2021/10/02 09:45:41;;;;;;;;;;;;;;;22.26;32.72;98755.06;4868133;29;1966;-80
2021/10/02 09:48:16;;;;;;;;;;;;;;;22.31;32.89;98746.06;4867678;29;1618;-80
2021/10/02 09:50:42;;;;;;;;;;;;;;;22.23;32.61;98753.09;4868627;29;575;-80
2021/10/02 09:53:11;;;;;;;;;;;;;;;22.03;32.60;98753.00;4868268;29;640;-80
2021/10/02 09:55:37;;;;;;;;;;;;;;;21.95;32.58;98759.19;4867498;29;761;-80
2021/10/02 09:58:05;;;;;;;;;;;;;;;21.95;32.31;98753.53;4867866;29;1562;-80
2021/10/02 10:00:32;;;;;;;;;;;;;;;21.92;32.48;98754.41;4868096;29;825;-79
2021/10/02 10:02:57;;;;;;;;;;;;;;;21.96;32.28;98755.13;4867974;29;894;-80
2021/10/02 10:05:26;;;;;;;;;;;;;;;21.99;32.15;98759.94;4867243;29;1903;-80
2021/10/02 10:07:56;;;;;;;;;;;;;;;21.95;32.13;98756.34;4867082;29;1547;-79
2021/10/02 10:10:23;;;;;;;;;;;;;;;21.92;31.92;98755.19;4867899;29;1566;-79
2021/10/02 10:12:48;;;;;;;;;;;;;;;21.74;31.93;98749.00;4867742;29;1625;-79
2021/10/02 10:15:27;;;;;;;;;;;;;;;21.78;32.28;98744.88;4886353;29;959;-80
2021/10/02 10:17:52;;;;;;;;;;;;;;;21.83;32.02;98746.44;4886670;29;646;-80
2021/10/02 10:20:18;;;;;;;;;;;;;;;21.82;32.10;98750.50;4868015;29;1592;-80
2021/10/02 10:22:43;;;;;;;;;;;;;;;21.91;31.86;98749.94;4868235;29;624;-79
2021/10/02 10:25:10;;;;;;;;;;;;;;;21.76;32.00;98747.34;4867436;29;1911;-79
2021/10/02 10:27:40;;;;;;;;;;;;;;;21.90;31.65;98754.00;4866852;29;936;-80
2021/10/02 10:30:07;;;;;;;;;;;;;;;21.92;31.51;98754.41;4867550;29;1488;-80
2021/10/02 10:32:32;;;;;;;;;;;;;;;21.86;31.60;98756.88;4866889;29;947;-80
2021/10/02 10:34:58;;;;;;;;;;;;;;;21.83;31.54;98746.44;4867034;29;743;-80
2021/10/02 10:37:24;;;;;;;;;;;;;;;21.76;31.64;98744.53;4866950;29;836;-79
2021/10/02 10:39:57;;;;;;;;;;;;;;;21.89;31.25;98743.91;4866812;29;1523;-80
2021/10/02 10:42:24;;;;;;;;;;;;;;;21.77;31.67;98748.94;4866869;29;930;-80
2021/10/02 10:44:49;;;;;;;;;;;;;;;21.75;31.42;98745.72;4867652;29;1907;-80
2021/10/02 10:47:15;;;;;;;;;;;;;;;21.71;31.41;98744.19;4866722;29;908;-79
2021/10/02 10:49:40;;;;;;;;;;;;;;;21.71;31.48;98745.00;4866574;29;1546;-80
2021/10/02 10:52:11;;;;;;;;;;;;;;;21.95;32.69;98743.00;4867460;29;696;-79
2021/10/02 10:54:40;;;;;;;;;;;;;;;22.23;32.42;98736.09;4867140;29;827;-79
2021/10/02 10:57:05;;;;;;;;;;;;;;;22.47;32.40;98739.69;4867278;29;965;-80
2021/10/02 10:59:49;;;;;;;;;;;;;;;22.26;32.52;98735.22;4867204;29;1557;-79
2021/10/02 11:02:33;;;;;;;;;;;;;;;22.05;32.28;98725.00;4867033;29;988;-80
2021/10/02 11:04:58;;;;;;;;;;;;;;;21.84;32.33;98733.88;4867601;29;1970;-79
2021/10/02 11:07:44;;;;;;;;;;;;;;;21.86;32.29;98742.72;4867486;29;651;-80
2021/10/02 11:10:29;;;;;;;;;;;;;;;22.06;31.88;98731.47;4866783;29;1531;-79
2021/10/02 11:12:55;;;;;;;;;;;;;;;21.88;32.06;98728.16;4867232;29;1116;-80
2021/10/02 11:15:23;;;;;;;;;;;;;;;21.82;32.14;98734.31;4869171;29;1085;-80
2021/10/02 11:17:49;;;;;;;;;;;;;;;21.81;32.04;98729.03;4871064;29;558;-79
2021/10/02 11:20:17;;;;;;;;;;;;;;;21.84;31.84;98729.00;4870031;29;1625;-79
2021/10/02 11:23:08;;;;;;;;;;;;;;;21.85;31.93;98727.75;4870975;29;656;-79
2021/10/02 11:25:34;;;;;;;;;;;;;;;21.74;31.76;98729.97;4870805;29;1911;-79
2021/10/02 11:28:18;;;;;;;;;;;;;;;21.69;31.66;98729.66;4869734;29;842;-80
2021/10/02 11:30:47;;;;;;;;;;;;;;;21.67;32.13;98732.91;4869862;29;1566;-79
2021/10/02 11:33:33;;;;;;;;;;;;;;;21.73;31.61;98736.06;4870848;29;650;-80
2021/10/02 11:35:59;;;;;;;;;;;;;;;21.67;31.80;98732.91;4870694;29;1264;-79
2021/10/02 11:38:35;;;;;;;;;;;;;;;21.62;31.75;98724.91;4870950;29;689;-79
2021/10/02 11:41:01;;;;;;;;;;;;;;;22.06;32.26;98722.97;4870244;29;1416;-79
2021/10/02 11:43:27;;;;;;;;;;;;;;;22.26;32.54;98734.41;4869590;29;892;-79
2021/10/02 11:45:52;;;;;;;;;;;;;;;22.46;32.38;98731.63;4870717;29;1914;-80
2021/10/02 11:48:34;;;;;;;;;;;;;;;22.44;32.31;98728.44;4870560;29;649;-80
2021/10/02 11:51:13;;;;;;;;;;;;;;;21.99;32.51;98731.59;4869681;29;1614;-80
2021/10/02 11:53:42;;;;;;;;;;;;;;;22.00;32.24;98730.38;4870554;29;691;-80
2021/10/02 11:56:21;;;;;;;;;;;;;;;21.94;32.32;98734.94;4869775;29;888;-80
2021/10/02 11:58:47;;;;;;;;;;;;;;;22.01;31.99;98726.28;4869416;29;946;-80
2021/10/02 12:01:17;;;;;;;;;;;;;;;21.83;31.90;98730.22;4870070;29;1605;-79
2021/10/02 12:03:42;;;;;;;;;;;;;;;21.85;31.93;98727.75;4870400;29;688;-79
2021/10/02 12:06:07;;;;;;;;;;;;;;;21.88;31.91;98733.81;4870012;29;1915;-80
2021/10/02 12:08:33;;;;;;;;;;;;;;;21.95;31.93;98725.19;4870148;29;621;-79
2021/10/02 12:10:59;;;;;;;;;;;;;;;21.84;32.09;98714.84;4868912;29;1570;-79
2021/10/02 12:13:25;;;;;;;;;;;;;;;21.95;31.78;98716.69;4869958;29;893;-80
2021/10/02 12:15:59;;;;;;;;;;;;;;;21.93;31.90;98713.50;4870134;29;1166;-80
2021/10/02 12:18:46;;;;;;;;;;;;;;;21.89;31.53;98715.59;4870327;29;973;-79
2021/10/02 12:21:30;;;;;;;;;;;;;;;21.83;31.89;98724.56;4869748;29;1558;-79
2021/10/02 12:23:57;;;;;;;;;;;;;;;21.79;31.65;98717.34;4869310;29;656;-80
2021/10/02 12:26:22;;;;;;;;;;;;;;;21.71;31.91;98719.50;4868351;29;1906;-79
2021/10/02 12:28:48;;;;;;;;;;;;;;;21.70;31.87;98720.72;4868871;29;889;-79
2021/10/02 12:31:13;;;;;;;;;;;;;;;21.73;31.75;98721.91;4869881;29;1007;-80
2021/10/02 12:33:39;;;;;;;;;;;;;;;21.69;31.66;98719.13;4868679;29;1614;-80
2021/10/02 12:36:04;;;;;;;;;;;;;;;21.87;31.30;98723.72;4870068;29;758;-80
2021/10/02 12:38:40;;;;;;;;;;;;;;;21.80;31.30;98722.59;4869691;29;704;-79
2021/10/02 12:41:05;;;;;;;;;;;;;;;21.70;31.57;98717.88;4869416;29;1208;-80
2021/10/02 12:43:32;;;;;;;;;;;;;;;22.21;32.28;98732.88;4869067;29;1659;-80
2021/10/02 12:45:57;;;;;;;;;;;;;;;22.28;32.59;98721.41;4869527;29;1988;-80
2021/10/02 12:48:22;;;;;;;;;;;;;;;22.43;32.67;98709.78;4868797;29;692;-80
2021/10/02 12:50:48;;;;;;;;;;;;;;;22.09;32.47;98725.75;4868757;29;725;-79
2021/10/02 12:53:13;;;;;;;;;;;;;;;22.05;32.35;98712.88;4869207;29;1554;-79
2021/10/02 12:55:39;;;;;;;;;;;;;;;22.00;32.24;98721.88;4869017;29;1519;-80
2021/10/02 12:58:14;;;;;;;;;;;;;;;21.89;32.21;98715.59;4869048;29;918;-80
2021/10/02 13:00:39;;;;;;;;;;;;;;;21.75;32.42;98716.59;4868524;29;857;-80
2021/10/02 13:03:05;;;;;;;;;;;;;;;21.78;32.35;98716.56;4869249;29;676;-80
2021/10/02 13:05:34;;;;;;;;;;;;;;;21.85;31.81;98722.09;4868748;29;1915;-79
2021/10/02 13:08:00;;;;;;;;;;;;;;;21.89;32.22;98721.25;4868451;29;673;-79
2021/10/02 13:10:26;;;;;;;;;;;;;;;21.84;31.84;98720.50;4868299;29;1008;-79
2021/10/02 13:12:55;;;;;;;;;;;;;;;21.92;31.63;98723.25;4868781;29;896;-79
2021/10/02 13:15:33;;;;;;;;;;;;;;;21.81;31.75;98715.72;4868475;29;1506;-79
2021/10/02 13:17:58;;;;;;;;;;;;;;;21.81;31.77;98710.03;4868947;29;748;-79
2021/10/02 13:20:24;;;;;;;;;;;;;;;21.85;31.95;98705.09;4868987;29;623;-79
2021/10/02 13:22:49;;;;;;;;;;;;;;;21.91;31.56;98707.44;4868183;29;788;-79
2021/10/02 13:25:20;;;;;;;;;;;;;;;21.91;31.47;98702.56;4867615;29;1907;-79
2021/10/02 13:27:46;;;;;;;;;;;;;;;21.84;31.76;98714.84;4867730;29;841;-79
2021/10/02 13:30:16;;;;;;;;;;;;;;;21.75;31.69;98713.78;4868763;29;930;-79
2021/10/02 13:32:43;;;;;;;;;;;;;;;21.81;31.63;98710.03;4868054;29;662;-79
2021/10/02 13:35:10;;;;;;;;;;;;;;;21.66;31.74;98713.50;4867876;29;1228;-79
2021/10/02 13:37:35;;;;;;;;;;;;;;;21.70;31.79;98709.38;4867982;29;1786;-79
2021/10/02 13:40:04;;;;;;;;;;;;;;;21.64;31.97;98705.44;4868399;29;1027;-79
2021/10/02 13:42:30;;;;;;;;;;;;;;;21.63;31.71;98709.50;4868200;29;889;-79
2021/10/02 13:44:56;;;;;;;;;;;;;;;21.76;31.77;98707.69;4867716;29;1903;-80
2021/10/02 13:47:22;;;;;;;;;;;;;;;21.70;31.62;98706.56;4867416;29;1744;-80
2021/10/02 13:49:47;;;;;;;;;;;;;;;21.75;31.43;98706.06;4868410;29;621;-80
2021/10/02 13:52:13;;;;;;;;;;;;;;;21.76;31.42;98702.03;4868531;29;696;-80
2021/10/02 13:54:38;;;;;;;;;;;;;;;22.21;32.01;98703.72;4867303;29;961;-79
2021/10/02 13:57:07;;;;;;;;;;;;;;;22.21;32.59;98710.19;4867652;29;1515;-80
2021/10/02 13:59:33;;;;;;;;;;;;;;;22.41;32.45;98700.94;4867344;29;1531;-79